sensor_id;sensor_type;location;lat;lon;timestamp;P1;durP1;ratioP1;P2;durP2;ratioP2
85670;SDS011;76102;50.890;3.932;2024-03-25T00:02:25;17.95;;;9.60;;
85670;SDS011;76102;50.890;3.932;2024-03-25T00:04:51;17.48;;;10.25;;
85670;SDS011;76102;50.890;3.932;2024-03-25T00:07:19;21.70;;;11.45;;
85670;SDS011;76102;50.890;3.932;2024-03-25T00:09:44;21.50;;;12.80;;
85670;SDS011;76102;50.890;3.932;2024-03-25T00:12:12;23.80;;;12.70;;
85670;SDS011;76102;50.890;3.932;2024-03-25T00:14:40;18.92;;;11.10;;
85670;SDS011;76102;50.890;3.932;2024-03-25T00:17:08;19.15;;;10.75;;
85670;SDS011;76102;50.890;3.932;2024-03-25T00:19:36;19.40;;;10.03;;
85670;SDS011;76102;50.890;3.932;2024-03-25T00:22:04;17.60;;;10.13;;
85670;SDS011;76102;50.890;3.932;2024-03-25T00:24:32;13.48;;;8.50;;
85670;SDS011;76102;50.890;3.932;2024-03-25T00:26:57;13.07;;;7.72;;
85670;SDS011;76102;50.890;3.932;2024-03-25T00:29:23;15.05;;;7.93;;
85670;SDS011;76102;50.890;3.932;2024-03-25T00:31:49;11.00;;;7.65;;
85670;SDS011;76102;50.890;3.932;2024-03-25T00:34:14;17.33;;;7.78;;
85670;SDS011;76102;50.890;3.932;2024-03-25T00:36:40;11.32;;;7.60;;
85670;SDS011;76102;50.890;3.932;2024-03-25T00:39:05;12.65;;;8.15;;
85670;SDS011;76102;50.890;3.932;2024-03-25T00:41:34;15.93;;;8.02;;
85670;SDS011;76102;50.890;3.932;2024-03-25T00:44:02;13.23;;;7.90;;
85670;SDS011;76102;50.890;3.932;2024-03-25T00:46:28;13.35;;;7.88;;
85670;SDS011;76102;50.890;3.932;2024-03-25T00:48:56;10.35;;;6.82;;
85670;SDS011;76102;50.890;3.932;2024-03-25T00:51:21;15.32;;;7.63;;
85670;SDS011;76102;50.890;3.932;2024-03-25T00:53:47;11.20;;;8.13;;
85670;SDS011;76102;50.890;3.932;2024-03-25T00:56:12;12.73;;;7.45;;
85670;SDS011;76102;50.890;3.932;2024-03-25T00:58:38;16.15;;;8.25;;
85670;SDS011;76102;50.890;3.932;2024-03-25T01:01:04;13.00;;;8.40;;
85670;SDS011;76102;50.890;3.932;2024-03-25T01:03:29;19.52;;;8.70;;
85670;SDS011;76102;50.890;3.932;2024-03-25T01:05:57;14.13;;;8.20;;
85670;SDS011;76102;50.890;3.932;2024-03-25T01:08:23;12.50;;;7.18;;
85670;SDS011;76102;50.890;3.932;2024-03-25T01:10:51;10.52;;;7.25;;
85670;SDS011;76102;50.890;3.932;2024-03-25T01:13:16;13.43;;;8.02;;
85670;SDS011;76102;50.890;3.932;2024-03-25T01:15:42;14.32;;;8.20;;
85670;SDS011;76102;50.890;3.932;2024-03-25T01:18:10;15.32;;;7.53;;
85670;SDS011;76102;50.890;3.932;2024-03-25T01:20:35;13.23;;;7.47;;
85670;SDS011;76102;50.890;3.932;2024-03-25T01:23:01;17.80;;;7.60;;
85670;SDS011;76102;50.890;3.932;2024-03-25T01:25:30;14.23;;;8.77;;
85670;SDS011;76102;50.890;3.932;2024-03-25T01:32:53;12.00;;;7.10;;
85670;SDS011;76102;50.890;3.932;2024-03-25T01:35:19;12.65;;;7.85;;
85670;SDS011;76102;50.890;3.932;2024-03-25T01:37:45;13.73;;;8.20;;
85670;SDS011;76102;50.890;3.932;2024-03-25T01:40:16;15.88;;;9.20;;
85670;SDS011;76102;50.890;3.932;2024-03-25T01:42:44;16.95;;;8.02;;
85670;SDS011;76102;50.890;3.932;2024-03-25T01:45:26;19.05;;;10.02;;
85670;SDS011;76102;50.890;3.932;2024-03-25T01:47:56;13.35;;;8.05;;
85670;SDS011;76102;50.890;3.932;2024-03-25T01:50:26;18.15;;;8.80;;
85670;SDS011;76102;50.890;3.932;2024-03-25T01:52:52;20.35;;;11.35;;
85670;SDS011;76102;50.890;3.932;2024-03-25T01:55:20;23.17;;;10.38;;
85670;SDS011;76102;50.890;3.932;2024-03-25T01:57:47;16.13;;;9.35;;
85670;SDS011;76102;50.890;3.932;2024-03-25T02:00:14;17.80;;;9.18;;
85670;SDS011;76102;50.890;3.932;2024-03-25T02:02:41;19.45;;;8.90;;
85670;SDS011;76102;50.890;3.932;2024-03-25T02:05:10;14.55;;;8.93;;
85670;SDS011;76102;50.890;3.932;2024-03-25T02:07:36;14.77;;;9.15;;
85670;SDS011;76102;50.890;3.932;2024-03-25T02:10:05;21.52;;;8.95;;
85670;SDS011;76102;50.890;3.932;2024-03-25T02:12:43;16.27;;;9.32;;
85670;SDS011;76102;50.890;3.932;2024-03-25T02:15:13;22.40;;;10.43;;
85670;SDS011;76102;50.890;3.932;2024-03-25T02:17:39;21.65;;;10.30;;
85670;SDS011;76102;50.890;3.932;2024-03-25T02:20:07;25.65;;;11.32;;
85670;SDS011;76102;50.890;3.932;2024-03-25T02:22:33;22.80;;;11.38;;
85670;SDS011;76102;50.890;3.932;2024-03-25T02:25:01;18.90;;;10.87;;
85670;SDS011;76102;50.890;3.932;2024-03-25T02:27:32;20.90;;;10.18;;
85670;SDS011;76102;50.890;3.932;2024-03-25T02:30:04;17.83;;;9.68;;
85670;SDS011;76102;50.890;3.932;2024-03-25T02:32:35;23.65;;;11.70;;
85670;SDS011;76102;50.890;3.932;2024-03-25T02:35:04;20.90;;;10.85;;
85670;SDS011;76102;50.890;3.932;2024-03-25T02:37:32;21.67;;;11.00;;
85670;SDS011;76102;50.890;3.932;2024-03-25T02:39:59;18.90;;;9.55;;
85670;SDS011;76102;50.890;3.932;2024-03-25T02:42:33;18.80;;;10.07;;
85670;SDS011;76102;50.890;3.932;2024-03-25T02:44:58;19.45;;;10.43;;
85670;SDS011;76102;50.890;3.932;2024-03-25T02:49:57;29.65;;;10.40;;
85670;SDS011;76102;50.890;3.932;2024-03-25T02:52:23;24.80;;;10.70;;
85670;SDS011;76102;50.890;3.932;2024-03-25T02:54:52;20.42;;;9.77;;
85670;SDS011;76102;50.890;3.932;2024-03-25T02:57:20;20.92;;;10.48;;
85670;SDS011;76102;50.890;3.932;2024-03-25T02:59:46;27.88;;;11.05;;
85670;SDS011;76102;50.890;3.932;2024-03-25T03:02:14;23.95;;;10.25;;
85670;SDS011;76102;50.890;3.932;2024-03-25T03:04:42;22.40;;;9.73;;
85670;SDS011;76102;50.890;3.932;2024-03-25T03:07:08;20.55;;;10.40;;
85670;SDS011;76102;50.890;3.932;2024-03-25T03:09:33;23.30;;;9.90;;
85670;SDS011;76102;50.890;3.932;2024-03-25T03:11:59;25.02;;;10.20;;
85670;SDS011;76102;50.890;3.932;2024-03-25T03:14:24;22.05;;;10.25;;
85670;SDS011;76102;50.890;3.932;2024-03-25T03:16:51;24.25;;;10.13;;
85670;SDS011;76102;50.890;3.932;2024-03-25T03:19:19;30.20;;;11.32;;
85670;SDS011;76102;50.890;3.932;2024-03-25T03:21:48;38.97;;;12.48;;
85670;SDS011;76102;50.890;3.932;2024-03-25T03:24:14;31.63;;;11.38;;
85670;SDS011;76102;50.890;3.932;2024-03-25T03:26:39;30.67;;;11.20;;
85670;SDS011;76102;50.890;3.932;2024-03-25T03:29:10;26.30;;;10.48;;
85670;SDS011;76102;50.890;3.932;2024-03-25T03:31:38;27.15;;;10.40;;
85670;SDS011;76102;50.890;3.932;2024-03-25T03:34:04;31.75;;;12.18;;
85670;SDS011;76102;50.890;3.932;2024-03-25T03:36:29;27.77;;;11.23;;
85670;SDS011;76102;50.890;3.932;2024-03-25T03:38:55;36.47;;;11.70;;
85670;SDS011;76102;50.890;3.932;2024-03-25T03:41:20;35.53;;;11.05;;
85670;SDS011;76102;50.890;3.932;2024-03-25T03:43:46;35.58;;;10.98;;
85670;SDS011;76102;50.890;3.932;2024-03-25T03:46:14;42.92;;;12.13;;
85670;SDS011;76102;50.890;3.932;2024-03-25T03:48:40;31.38;;;11.25;;
85670;SDS011;76102;50.890;3.932;2024-03-25T03:51:08;30.13;;;9.68;;
85670;SDS011;76102;50.890;3.932;2024-03-25T03:53:36;31.55;;;10.18;;
85670;SDS011;76102;50.890;3.932;2024-03-25T03:56:03;29.55;;;10.70;;
85670;SDS011;76102;50.890;3.932;2024-03-25T03:58:31;30.60;;;10.25;;
85670;SDS011;76102;50.890;3.932;2024-03-25T04:01:00;23.50;;;9.80;;
85670;SDS011;76102;50.890;3.932;2024-03-25T04:03:29;34.33;;;10.75;;
85670;SDS011;76102;50.890;3.932;2024-03-25T04:05:57;28.55;;;10.48;;
85670;SDS011;76102;50.890;3.932;2024-03-25T04:08:35;30.60;;;10.77;;
85670;SDS011;76102;50.890;3.932;2024-03-25T04:11:01;34.97;;;11.52;;
85670;SDS011;76102;50.890;3.932;2024-03-25T04:13:27;41.00;;;10.70;;
85670;SDS011;76102;50.890;3.932;2024-03-25T04:15:59;39.65;;;10.40;;
85670;SDS011;76102;50.890;3.932;2024-03-25T04:18:29;26.85;;;9.90;;
85670;SDS011;76102;50.890;3.932;2024-03-25T04:20:56;24.73;;;8.95;;
85670;SDS011;76102;50.890;3.932;2024-03-25T04:23:24;27.00;;;9.82;;
85670;SDS011;76102;50.890;3.932;2024-03-25T04:25:50;38.40;;;10.65;;
85670;SDS011;76102;50.890;3.932;2024-03-25T04:28:16;29.33;;;10.75;;
85670;SDS011;76102;50.890;3.932;2024-03-25T04:30:49;31.13;;;10.43;;
85670;SDS011;76102;50.890;3.932;2024-03-25T04:33:19;28.55;;;10.43;;
85670;SDS011;76102;50.890;3.932;2024-03-25T04:35:47;35.38;;;9.80;;
85670;SDS011;76102;50.890;3.932;2024-03-25T04:38:16;31.23;;;10.15;;
85670;SDS011;76102;50.890;3.932;2024-03-25T04:40:41;44.50;;;11.38;;
85670;SDS011;76102;50.890;3.932;2024-03-25T04:43:09;29.88;;;11.00;;
85670;SDS011;76102;50.890;3.932;2024-03-25T04:45:37;36.70;;;10.95;;
85670;SDS011;76102;50.890;3.932;2024-03-25T04:48:02;32.40;;;10.23;;
85670;SDS011;76102;50.890;3.932;2024-03-25T04:50:28;36.10;;;9.63;;
85670;SDS011;76102;50.890;3.932;2024-03-25T04:52:55;31.17;;;11.00;;
85670;SDS011;76102;50.890;3.932;2024-03-25T04:55:20;37.17;;;10.50;;
85670;SDS011;76102;50.890;3.932;2024-03-25T04:57:46;32.53;;;10.52;;
85670;SDS011;76102;50.890;3.932;2024-03-25T05:00:12;31.23;;;10.18;;
85670;SDS011;76102;50.890;3.932;2024-03-25T05:05:08;32.38;;;9.30;;
85670;SDS011;76102;50.890;3.932;2024-03-25T05:07:34;33.92;;;8.93;;
85670;SDS011;76102;50.890;3.932;2024-03-25T05:10:00;28.98;;;9.27;;
85670;SDS011;76102;50.890;3.932;2024-03-25T05:12:28;30.30;;;8.65;;
85670;SDS011;76102;50.890;3.932;2024-03-25T05:14:58;44.28;;;11.18;;
85670;SDS011;76102;50.890;3.932;2024-03-25T05:17:26;28.20;;;8.65;;
85670;SDS011;76102;50.890;3.932;2024-03-25T05:19:54;27.40;;;8.98;;
85670;SDS011;76102;50.890;3.932;2024-03-25T05:22:22;36.63;;;10.52;;
85670;SDS011;76102;50.890;3.932;2024-03-25T05:24:50;31.77;;;9.52;;
85670;SDS011;76102;50.890;3.932;2024-03-25T05:27:15;37.60;;;9.38;;
85670;SDS011;76102;50.890;3.932;2024-03-25T05:29:41;25.52;;;8.48;;
85670;SDS011;76102;50.890;3.932;2024-03-25T05:32:09;27.23;;;9.45;;
85670;SDS011;76102;50.890;3.932;2024-03-25T05:34:37;44.17;;;9.07;;
85670;SDS011;76102;50.890;3.932;2024-03-25T05:37:05;36.40;;;9.05;;
85670;SDS011;76102;50.890;3.932;2024-03-25T05:39:30;34.33;;;9.30;;
85670;SDS011;76102;50.890;3.932;2024-03-25T05:41:56;26.70;;;9.27;;
85670;SDS011;76102;50.890;3.932;2024-03-25T05:44:24;33.15;;;9.35;;
85670;SDS011;76102;50.890;3.932;2024-03-25T05:46:49;31.58;;;9.00;;
85670;SDS011;76102;50.890;3.932;2024-03-25T05:49:15;35.17;;;8.68;;
85670;SDS011;76102;50.890;3.932;2024-03-25T05:51:43;26.48;;;8.85;;
85670;SDS011;76102;50.890;3.932;2024-03-25T05:54:09;33.78;;;8.90;;
85670;SDS011;76102;50.890;3.932;2024-03-25T05:56:39;31.58;;;9.10;;
85670;SDS011;76102;50.890;3.932;2024-03-25T05:59:05;34.40;;;9.80;;
85670;SDS011;76102;50.890;3.932;2024-03-25T06:01:31;27.05;;;8.90;;
85670;SDS011;76102;50.890;3.932;2024-03-25T06:03:56;33.03;;;8.65;;
85670;SDS011;76102;50.890;3.932;2024-03-25T06:06:22;29.88;;;9.15;;
85670;SDS011;76102;50.890;3.932;2024-03-25T06:08:49;32.88;;;10.07;;
85670;SDS011;76102;50.890;3.932;2024-03-25T06:11:19;24.08;;;9.20;;
85670;SDS011;76102;50.890;3.932;2024-03-25T06:13:50;31.80;;;9.27;;
85670;SDS011;76102;50.890;3.932;2024-03-25T06:16:16;25.95;;;8.35;;
85670;SDS011;76102;50.890;3.932;2024-03-25T06:18:41;33.28;;;9.18;;
85670;SDS011;76102;50.890;3.932;2024-03-25T06:21:07;30.58;;;10.00;;
85670;SDS011;76102;50.890;3.932;2024-03-25T06:23:32;33.88;;;9.90;;
85670;SDS011;76102;50.890;3.932;2024-03-25T06:25:58;35.38;;;9.63;;
85670;SDS011;76102;50.890;3.932;2024-03-25T06:28:26;33.67;;;9.68;;
85670;SDS011;76102;50.890;3.932;2024-03-25T06:30:54;38.58;;;9.45;;
85670;SDS011;76102;50.890;3.932;2024-03-25T06:33:38;27.77;;;8.40;;
85670;SDS011;76102;50.890;3.932;2024-03-25T06:36:22;34.65;;;9.32;;
85670;SDS011;76102;50.890;3.932;2024-03-25T06:38:48;38.35;;;9.07;;
85670;SDS011;76102;50.890;3.932;2024-03-25T06:41:14;32.05;;;8.20;;
85670;SDS011;76102;50.890;3.932;2024-03-25T06:43:39;38.33;;;8.80;;
85670;SDS011;76102;50.890;3.932;2024-03-25T06:46:06;28.52;;;8.40;;
85670;SDS011;76102;50.890;3.932;2024-03-25T06:48:32;31.50;;;8.80;;
85670;SDS011;76102;50.890;3.932;2024-03-25T06:50:59;35.92;;;9.00;;
85670;SDS011;76102;50.890;3.932;2024-03-25T06:53:28;26.80;;;8.63;;
85670;SDS011;76102;50.890;3.932;2024-03-25T06:56:03;30.00;;;8.88;;
85670;SDS011;76102;50.890;3.932;2024-03-25T06:58:31;26.77;;;8.63;;
85670;SDS011;76102;50.890;3.932;2024-03-25T07:01:03;25.35;;;7.47;;
85670;SDS011;76102;50.890;3.932;2024-03-25T07:03:32;31.58;;;9.57;;
85670;SDS011;76102;50.890;3.932;2024-03-25T07:06:01;16.15;;;6.50;;
85670;SDS011;76102;50.890;3.932;2024-03-25T07:08:32;20.48;;;7.65;;
85670;SDS011;76102;50.890;3.932;2024-03-25T07:10:58;24.17;;;8.05;;
85670;SDS011;76102;50.890;3.932;2024-03-25T07:13:23;21.08;;;8.98;;
85670;SDS011;76102;50.890;3.932;2024-03-25T07:15:52;29.73;;;9.23;;
85670;SDS011;76102;50.890;3.932;2024-03-25T07:18:17;21.20;;;7.25;;
85670;SDS011;76102;50.890;3.932;2024-03-25T07:20:43;26.20;;;9.13;;
85670;SDS011;76102;50.890;3.932;2024-03-25T07:25:39;28.42;;;9.43;;
85670;SDS011;76102;50.890;3.932;2024-03-25T07:28:05;20.50;;;7.05;;
85670;SDS011;76102;50.890;3.932;2024-03-25T07:30:33;28.90;;;9.48;;
85670;SDS011;76102;50.890;3.932;2024-03-25T07:33:01;21.58;;;9.10;;
85670;SDS011;76102;50.890;3.932;2024-03-25T07:35:26;25.88;;;6.78;;
85670;SDS011;76102;50.890;3.932;2024-03-25T07:37:52;28.38;;;10.63;;
85670;SDS011;76102;50.890;3.932;2024-03-25T07:40:18;21.17;;;8.70;;
85670;SDS011;76102;50.890;3.932;2024-03-25T07:42:47;26.58;;;9.93;;
85670;SDS011;76102;50.890;3.932;2024-03-25T07:45:16;18.05;;;6.40;;
85670;SDS011;76102;50.890;3.932;2024-03-25T07:47:44;23.52;;;8.35;;
85670;SDS011;76102;50.890;3.932;2024-03-25T07:50:12;25.80;;;8.70;;
85670;SDS011;76102;50.890;3.932;2024-03-25T07:52:38;27.90;;;9.48;;
85670;SDS011;76102;50.890;3.932;2024-03-25T07:55:06;22.65;;;8.70;;
85670;SDS011;76102;50.890;3.932;2024-03-25T07:57:34;23.48;;;8.27;;
85670;SDS011;76102;50.890;3.932;2024-03-25T08:00:03;19.48;;;8.45;;
85670;SDS011;76102;50.890;3.932;2024-03-25T08:02:34;23.08;;;8.30;;
85670;SDS011;76102;50.890;3.932;2024-03-25T08:05:01;20.20;;;6.45;;
85670;SDS011;76102;50.890;3.932;2024-03-25T08:07:30;23.38;;;8.05;;
85670;SDS011;76102;50.890;3.932;2024-03-25T08:09:58;23.02;;;7.88;;
85670;SDS011;76102;50.890;3.932;2024-03-25T08:12:24;21.83;;;7.25;;
85670;SDS011;76102;50.890;3.932;2024-03-25T08:14:49;19.50;;;7.40;;
85670;SDS011;76102;50.890;3.932;2024-03-25T08:17:15;15.85;;;6.43;;
85670;SDS011;76102;50.890;3.932;2024-03-25T08:19:40;22.80;;;7.32;;
85670;SDS011;76102;50.890;3.932;2024-03-25T08:22:06;27.98;;;8.25;;
85670;SDS011;76102;50.890;3.932;2024-03-25T08:24:34;24.98;;;7.90;;
85670;SDS011;76102;50.890;3.932;2024-03-25T08:27:02;23.60;;;8.15;;
85670;SDS011;76102;50.890;3.932;2024-03-25T08:29:28;19.40;;;7.28;;
85670;SDS011;76102;50.890;3.932;2024-03-25T08:31:56;22.40;;;7.57;;
85670;SDS011;76102;50.890;3.932;2024-03-25T08:34:21;20.13;;;7.35;;
85670;SDS011;76102;50.890;3.932;2024-03-25T08:36:52;17.35;;;7.72;;
85670;SDS011;76102;50.890;3.932;2024-03-25T08:39:20;18.73;;;7.10;;
85670;SDS011;76102;50.890;3.932;2024-03-25T08:41:48;30.00;;;7.68;;
85670;SDS011;76102;50.890;3.932;2024-03-25T08:44:14;20.95;;;7.70;;
85670;SDS011;76102;50.890;3.932;2024-03-25T08:46:42;21.45;;;7.78;;
85670;SDS011;76102;50.890;3.932;2024-03-25T08:49:10;13.90;;;5.78;;
85670;SDS011;76102;50.890;3.932;2024-03-25T08:51:38;14.73;;;6.85;;
85670;SDS011;76102;50.890;3.932;2024-03-25T08:54:04;18.13;;;6.95;;
85670;SDS011;76102;50.890;3.932;2024-03-25T08:56:32;26.83;;;7.18;;
85670;SDS011;76102;50.890;3.932;2024-03-25T08:58:59;21.20;;;6.18;;
85670;SDS011;76102;50.890;3.932;2024-03-25T09:01:26;19.63;;;6.90;;
85670;SDS011;76102;50.890;3.932;2024-03-25T09:03:55;18.55;;;6.15;;
85670;SDS011;76102;50.890;3.932;2024-03-25T09:06:23;18.60;;;6.97;;
85670;SDS011;76102;50.890;3.932;2024-03-25T09:08:52;19.65;;;7.85;;
85670;SDS011;76102;50.890;3.932;2024-03-25T09:11:36;23.70;;;8.25;;
85670;SDS011;76102;50.890;3.932;2024-03-25T09:14:04;19.38;;;8.40;;
85670;SDS011;76102;50.890;3.932;2024-03-25T09:16:32;20.80;;;11.45;;
85670;SDS011;76102;50.890;3.932;2024-03-25T09:19:00;29.42;;;14.18;;
85670;SDS011;76102;50.890;3.932;2024-03-25T09:21:28;36.58;;;15.18;;
85670;SDS011;76102;50.890;3.932;2024-03-25T09:23:57;26.95;;;14.05;;
85670;SDS011;76102;50.890;3.932;2024-03-25T09:28:49;22.13;;;13.18;;
85670;SDS011;76102;50.890;3.932;2024-03-25T09:31:14;30.38;;;15.68;;
85670;SDS011;76102;50.890;3.932;2024-03-25T09:33:40;34.70;;;17.52;;
85670;SDS011;76102;50.890;3.932;2024-03-25T09:36:06;32.42;;;16.52;;
85670;SDS011;76102;50.890;3.932;2024-03-25T09:38:33;34.97;;;15.90;;
85670;SDS011;76102;50.890;3.932;2024-03-25T09:41:01;25.92;;;13.50;;
85670;SDS011;76102;50.890;3.932;2024-03-25T09:43:31;32.28;;;15.07;;
85670;SDS011;76102;50.890;3.932;2024-03-25T09:46:12;28.70;;;14.32;;
85670;SDS011;76102;50.890;3.932;2024-03-25T09:48:37;32.17;;;13.68;;
85670;SDS011;76102;50.890;3.932;2024-03-25T09:51:04;25.35;;;12.43;;
85670;SDS011;76102;50.890;3.932;2024-03-25T09:53:30;17.25;;;9.82;;
85670;SDS011;76102;50.890;3.932;2024-03-25T09:55:56;25.27;;;13.93;;
85670;SDS011;76102;50.890;3.932;2024-03-25T09:58:22;18.08;;;8.95;;
85670;SDS011;76102;50.890;3.932;2024-03-25T10:00:50;21.30;;;9.50;;
85670;SDS011;76102;50.890;3.932;2024-03-25T10:03:18;17.02;;;8.98;;
85670;SDS011;76102;50.890;3.932;2024-03-25T10:05:44;16.77;;;7.65;;
85670;SDS011;76102;50.890;3.932;2024-03-25T10:08:09;13.63;;;7.43;;
85670;SDS011;76102;50.890;3.932;2024-03-25T10:10:37;14.25;;;7.40;;
85670;SDS011;76102;50.890;3.932;2024-03-25T10:13:05;17.38;;;7.07;;
85670;SDS011;76102;50.890;3.932;2024-03-25T10:15:33;16.20;;;6.05;;
85670;SDS011;76102;50.890;3.932;2024-03-25T10:18:01;15.50;;;6.03;;
85670;SDS011;76102;50.890;3.932;2024-03-25T10:20:27;14.90;;;5.68;;
85670;SDS011;76102;50.890;3.932;2024-03-25T10:22:52;14.23;;;6.45;;
85670;SDS011;76102;50.890;3.932;2024-03-25T10:25:27;12.02;;;5.88;;
85670;SDS011;76102;50.890;3.932;2024-03-25T10:30:23;9.73;;;4.95;;
85670;SDS011;76102;50.890;3.932;2024-03-25T10:32:59;11.43;;;6.07;;
85670;SDS011;76102;50.890;3.932;2024-03-25T10:35:26;13.63;;;5.40;;
85670;SDS011;76102;50.890;3.932;2024-03-25T10:37:56;15.98;;;6.20;;
85670;SDS011;76102;50.890;3.932;2024-03-25T10:40:29;12.05;;;4.90;;
85670;SDS011;76102;50.890;3.932;2024-03-25T10:43:05;12.90;;;4.20;;
85670;SDS011;76102;50.890;3.932;2024-03-25T10:45:43;19.05;;;5.38;;
85670;SDS011;76102;50.890;3.932;2024-03-25T10:48:20;14.75;;;4.60;;
85670;SDS011;76102;50.890;3.932;2024-03-25T10:50:51;9.65;;;4.55;;
85670;SDS011;76102;50.890;3.932;2024-03-25T10:53:21;9.88;;;4.60;;
85670;SDS011;76102;50.890;3.932;2024-03-25T10:55:52;8.23;;;3.90;;
85670;SDS011;76102;50.890;3.932;2024-03-25T10:58:22;9.48;;;3.88;;
85670;SDS011;76102;50.890;3.932;2024-03-25T11:00:52;7.20;;;4.30;;
85670;SDS011;76102;50.890;3.932;2024-03-25T11:03:22;29.80;;;4.10;;
85670;SDS011;76102;50.890;3.932;2024-03-25T11:05:48;7.07;;;3.63;;
85670;SDS011;76102;50.890;3.932;2024-03-25T11:08:15;11.05;;;4.00;;
85670;SDS011;76102;50.890;3.932;2024-03-25T11:10:42;9.30;;;3.88;;
85670;SDS011;76102;50.890;3.932;2024-03-25T11:13:10;11.00;;;4.43;;
85670;SDS011;76102;50.890;3.932;2024-03-25T11:15:42;8.50;;;3.85;;
85670;SDS011;76102;50.890;3.932;2024-03-25T11:18:12;8.20;;;4.18;;
85670;SDS011;76102;50.890;3.932;2024-03-25T11:20:39;7.75;;;3.58;;
85670;SDS011;76102;50.890;3.932;2024-03-25T11:23:11;9.85;;;4.05;;
85670;SDS011;76102;50.890;3.932;2024-03-25T11:25:38;9.55;;;3.53;;
85670;SDS011;76102;50.890;3.932;2024-03-25T11:28:05;7.15;;;3.30;;
85670;SDS011;76102;50.890;3.932;2024-03-25T11:30:32;7.50;;;3.40;;
85670;SDS011;76102;50.890;3.932;2024-03-25T11:33:00;5.65;;;3.38;;
85670;SDS011;76102;50.890;3.932;2024-03-25T11:35:27;8.98;;;3.60;;
85670;SDS011;76102;50.890;3.932;2024-03-25T11:37:53;6.38;;;3.60;;
85670;SDS011;76102;50.890;3.932;2024-03-25T11:40:21;9.32;;;2.67;;
85670;SDS011;76102;50.890;3.932;2024-03-25T11:42:46;8.55;;;3.50;;
85670;SDS011;76102;50.890;3.932;2024-03-25T11:45:16;8.48;;;3.42;;
85670;SDS011;76102;50.890;3.932;2024-03-25T11:47:47;5.75;;;2.78;;
85670;SDS011;76102;50.890;3.932;2024-03-25T11:50:17;7.10;;;3.22;;
85670;SDS011;76102;50.890;3.932;2024-03-25T11:52:44;8.65;;;3.80;;
85670;SDS011;76102;50.890;3.932;2024-03-25T11:55:10;6.80;;;3.40;;
85670;SDS011;76102;50.890;3.932;2024-03-25T11:57:40;6.85;;;3.17;;
85670;SDS011;76102;50.890;3.932;2024-03-25T12:00:07;7.72;;;3.17;;
85670;SDS011;76102;50.890;3.932;2024-03-25T12:02:36;6.07;;;3.25;;
85670;SDS011;76102;50.890;3.932;2024-03-25T12:05:07;5.18;;;2.80;;
85670;SDS011;76102;50.890;3.932;2024-03-25T12:07:33;11.52;;;2.97;;
85670;SDS011;76102;50.890;3.932;2024-03-25T12:10:00;3.33;;;2.63;;
85670;SDS011;76102;50.890;3.932;2024-03-25T12:12:45;8.30;;;3.22;;
85670;SDS011;76102;50.890;3.932;2024-03-25T12:15:11;7.55;;;3.05;;
85670;SDS011;76102;50.890;3.932;2024-03-25T12:17:37;5.97;;;2.92;;
85670;SDS011;76102;50.890;3.932;2024-03-25T12:20:06;9.48;;;3.55;;
85670;SDS011;76102;50.890;3.932;2024-03-25T12:22:43;5.45;;;2.65;;
85670;SDS011;76102;50.890;3.932;2024-03-25T12:25:09;4.82;;;2.88;;
85670;SDS011;76102;50.890;3.932;2024-03-25T12:27:38;7.43;;;2.80;;
85670;SDS011;76102;50.890;3.932;2024-03-25T12:30:08;8.55;;;3.40;;
85670;SDS011;76102;50.890;3.932;2024-03-25T12:32:38;7.75;;;3.40;;
85670;SDS011;76102;50.890;3.932;2024-03-25T12:37:37;4.72;;;2.60;;
85670;SDS011;76102;50.890;3.932;2024-03-25T12:40:07;5.97;;;3.10;;
85670;SDS011;76102;50.890;3.932;2024-03-25T12:42:35;6.82;;;2.70;;
85670;SDS011;76102;50.890;3.932;2024-03-25T12:45:02;6.65;;;2.65;;
85670;SDS011;76102;50.890;3.932;2024-03-25T12:47:28;5.88;;;2.67;;
85670;SDS011;76102;50.890;3.932;2024-03-25T12:49:56;9.52;;;3.30;;
85670;SDS011;76102;50.890;3.932;2024-03-25T12:52:22;6.90;;;3.03;;
85670;SDS011;76102;50.890;3.932;2024-03-25T12:57:18;6.53;;;2.88;;
85670;SDS011;76102;50.890;3.932;2024-03-25T12:59:48;7.55;;;2.95;;
85670;SDS011;76102;50.890;3.932;2024-03-25T13:02:16;8.98;;;2.42;;
85670;SDS011;76102;50.890;3.932;2024-03-25T13:04:44;6.90;;;2.90;;
85670;SDS011;76102;50.890;3.932;2024-03-25T13:07:10;4.85;;;2.75;;
85670;SDS011;76102;50.890;3.932;2024-03-25T13:09:38;5.32;;;2.58;;
85670;SDS011;76102;50.890;3.932;2024-03-25T13:12:06;6.28;;;3.00;;
85670;SDS011;76102;50.890;3.932;2024-03-25T13:14:34;3.47;;;2.40;;
85670;SDS011;76102;50.890;3.932;2024-03-25T13:17:00;7.15;;;3.03;;
85670;SDS011;76102;50.890;3.932;2024-03-25T13:19:25;4.10;;;2.58;;
85670;SDS011;76102;50.890;3.932;2024-03-25T13:21:56;4.47;;;2.75;;
85670;SDS011;76102;50.890;3.932;2024-03-25T13:24:22;5.40;;;3.00;;
85670;SDS011;76102;50.890;3.932;2024-03-25T13:26:53;3.83;;;2.70;;
85670;SDS011;76102;50.890;3.932;2024-03-25T13:29:21;7.95;;;2.92;;
85670;SDS011;76102;50.890;3.932;2024-03-25T13:31:47;6.00;;;3.10;;
85670;SDS011;76102;50.890;3.932;2024-03-25T13:34:12;5.65;;;2.95;;
85670;SDS011;76102;50.890;3.932;2024-03-25T13:36:38;6.07;;;2.72;;
85670;SDS011;76102;50.890;3.932;2024-03-25T13:39:04;4.95;;;3.10;;
85670;SDS011;76102;50.890;3.932;2024-03-25T13:41:29;5.70;;;3.10;;
85670;SDS011;76102;50.890;3.932;2024-03-25T13:43:55;6.25;;;3.20;;
85670;SDS011;76102;50.890;3.932;2024-03-25T13:46:21;4.55;;;2.95;;
85670;SDS011;76102;50.890;3.932;2024-03-25T13:48:49;6.80;;;3.55;;
85670;SDS011;76102;50.890;3.932;2024-03-25T13:51:19;5.43;;;2.75;;
85670;SDS011;76102;50.890;3.932;2024-03-25T13:53:45;7.50;;;3.05;;
85670;SDS011;76102;50.890;3.932;2024-03-25T13:56:10;8.77;;;3.47;;
85670;SDS011;76102;50.890;3.932;2024-03-25T13:58:36;3.10;;;2.15;;
85670;SDS011;76102;50.890;3.932;2024-03-25T14:01:01;4.57;;;3.00;;
85670;SDS011;76102;50.890;3.932;2024-03-25T14:03:28;6.47;;;3.00;;
85670;SDS011;76102;50.890;3.932;2024-03-25T14:05:56;7.50;;;2.78;;
85670;SDS011;76102;50.890;3.932;2024-03-25T14:08:21;4.97;;;2.50;;
85670;SDS011;76102;50.890;3.932;2024-03-25T14:10:56;3.95;;;2.10;;
85670;SDS011;76102;50.890;3.932;2024-03-25T14:13:25;4.67;;;2.23;;
85670;SDS011;76102;50.890;3.932;2024-03-25T14:15:51;4.60;;;2.53;;
85670;SDS011;76102;50.890;3.932;2024-03-25T14:18:17;10.55;;;2.90;;
85670;SDS011;76102;50.890;3.932;2024-03-25T14:20:44;5.80;;;2.92;;
85670;SDS011;76102;50.890;3.932;2024-03-25T14:23:11;8.18;;;2.83;;
85670;SDS011;76102;50.890;3.932;2024-03-25T14:25:39;8.20;;;2.70;;
85670;SDS011;76102;50.890;3.932;2024-03-25T14:28:08;5.63;;;2.75;;
85670;SDS011;76102;50.890;3.932;2024-03-25T14:30:36;4.20;;;2.78;;
85670;SDS011;76102;50.890;3.932;2024-03-25T14:33:03;5.70;;;2.78;;
85670;SDS011;76102;50.890;3.932;2024-03-25T14:35:32;7.80;;;2.83;;
85670;SDS011;76102;50.890;3.932;2024-03-25T14:37:58;7.50;;;2.90;;
85670;SDS011;76102;50.890;3.932;2024-03-25T14:40:26;5.57;;;3.20;;
85670;SDS011;76102;50.890;3.932;2024-03-25T14:42:54;6.03;;;2.90;;
85670;SDS011;76102;50.890;3.932;2024-03-25T14:45:20;4.97;;;2.95;;
85670;SDS011;76102;50.890;3.932;2024-03-25T14:47:45;7.65;;;3.08;;
85670;SDS011;76102;50.890;3.932;2024-03-25T14:50:11;7.43;;;3.05;;
85670;SDS011;76102;50.890;3.932;2024-03-25T14:52:36;4.40;;;2.50;;
85670;SDS011;76102;50.890;3.932;2024-03-25T14:55:02;5.63;;;3.00;;
85670;SDS011;76102;50.890;3.932;2024-03-25T14:57:28;6.07;;;2.40;;
85670;SDS011;76102;50.890;3.932;2024-03-25T14:59:53;6.25;;;2.80;;
85670;SDS011;76102;50.890;3.932;2024-03-25T15:02:19;5.38;;;2.70;;